Hansa Australia — CQCG — position and weather

sailwx.info

Track history (hours):
 
Tides and Currents Weather Stations Pressure Air Temp Water Temp Dewpoint Dewpoint Depression Visibility Wind Speed Wind Dir Waves Ship Positions

Hansa Australia

Last reported at 2018-Jan-19 11:21 UTC. Time now 2018-Jan-19 11:34 UTC.
Position N 51°20' E 004°20'.

Length 240 m; draft 8.4 m.

Type: Ship (hazmat cat A). MMSI: 255805757.

Date/timePositionNaut miles runAvg speedWind from/ knotsBaromVisibWave heightAir tempDewpointWater temp
2018-Jan-19 11:21N 51°20' E 004°20'0 0.0
2018-Jan-19 10:57N 51°20' E 004°20'0 0.0
2018-Jan-19 10:27N 51°20' E 004°20'0 0.0
2018-Jan-19 09:57N 51°20' E 004°20'0 0.0
2018-Jan-19 09:27N 51°20' E 004°20'0 0.0
2018-Jan-19 08:57N 51°20' E 004°20'0 0.0
2018-Jan-19 08:27N 51°20' E 004°20'0 0.0
2018-Jan-19 07:57N 51°20' E 004°20'0 0.0
2018-Jan-19 07:27N 51°20' E 004°20'0 0.0
2018-Jan-19 06:57N 51°20' E 004°20'0 0.0
2018-Jan-19 06:27N 51°20' E 004°20'0 0.0
2018-Jan-19 05:57N 51°20' E 004°20'0 0.0
2018-Jan-19 05:27N 51°20' E 004°20'0 0.0
2018-Jan-19 04:57N 51°20' E 004°20'0 0.0
2018-Jan-19 04:27N 51°20' E 004°20'0 0.0
2018-Jan-19 03:57N 51°20' E 004°20'0 0.0
2018-Jan-19 03:27N 51°20' E 004°20'0 0.0
2018-Jan-19 02:57N 51°20' E 004°20'0 0.0
2018-Jan-19 02:27N 51°20' E 004°20'0 0.0
2018-Jan-19 01:51N 51°20' E 004°20'0 0.0
2018-Jan-19 01:27N 51°20' E 004°20'0 0.0
2018-Jan-19 00:57N 51°20' E 004°20'1 2.3
2018-Jan-19 00:30N 51°20' E 004°18'1 2.7
2018-Jan-19 00:00N 51°21' E 004°17'0 0.0
2018-Jan-18 23:30N 51°21' E 004°17'0 0.1
2018-Jan-18 23:00N 51°21' E 004°17'3 5.1
2018-Jan-18 22:30N 51°22' E 004°13'4 7.4
2018-Jan-18 22:00N 51°22' E 004°07'5 9.5
2018-Jan-18 21:30N 51°25' E 004°02'4 8.8
2018-Jan-18 21:00N 51°23' E 003°56'510.8
2018-Jan-18 20:30N 51°21' E 003°48'510.5
2018-Jan-18 20:00N 51°25' E 003°42'5 9.6
2018-Jan-18 19:30N 51°26' E 003°35'4 7.4
2018-Jan-18 18:57N 51°25' E 003°28'510.9
2018-Jan-18 18:30N 51°24' E 003°21'611.5
2018-Jan-18 18:00N 51°24' E 003°11'712.6
2018-Jan-18 17:29N 51°25' E 003°01'613.6
2018-Jan-18 17:00N 51°25' E 002°51'612.2
2018-Jan-18 16:30N 51°22' E 002°42'2 2.7
2018-Jan-18 15:54N 51°22' E 002°40'2 3.0
2018-Jan-18 15:23N 51°22' E 002°37'3 7.1
2018-Jan-18 14:57N 51°22' E 002°32'3 7.5
2018-Jan-18 14:30N 51°21' E 002°27'4 7.9
2018-Jan-18 14:00N 51°20' E 002°21'4 8.0
2018-Jan-18 13:30N 51°18' E 002°16'611.5
2018-Jan-18 13:00N 51°15' E 002°08'612.2
2018-Jan-18 12:30N 51°12' E 001°59'612.3
2018-Jan-18 12:00N 51°10' E 001°50'612.6
2018-Jan-18 11:30N 51°06' E 001°42'612.8
2018-Jan-18 11:00N 51°02' E 001°35'714.2
2018-Jan-18 10:30N 50°56' E 001°27'713.9
2018-Jan-18 10:00N 50°50' E 001°24'713.2
2018-Jan-18 09:30N 50°43' E 001°21'1313.1
2018-Jan-18 08:31N 50°34' E 001°07'013.2
2018-Jan-18 08:30N 50°34' E 001°06'712.9
2018-Jan-18 07:59N 50°30' E 000°58'814.8
2018-Jan-18 07:28N 50°28' E 000°46'714.7
2018-Jan-18 07:00N 50°26' E 000°36'714.5
2018-Jan-18 06:30N 50°24' E 000°25'714.3
2018-Jan-18 06:00N 50°22' E 000°15'713.8
2018-Jan-18 05:30N 50°20' E 000°04'713.5
2018-Jan-18 05:00N 50°19' W 000°06'713.3
2018-Jan-18 04:30N 50°17' W 000°16'  
2018-Jan-10 19:46N 28°59' W 012°59'512.7
2018-Jan-10 19:23N 28°55' W 013°03'812.8
2018-Jan-10 18:47N 28°48' W 013°07'512.8
2018-Jan-10 18:25N 28°45' W 013°11'612.7
2018-Jan-10 17:57N 28°40' W 013°15'712.8
2018-Jan-10 17:24N 28°34' W 013°19'2913.1
2018-Jan-10 15:10N 28°10' W 013°38'212.9
2018-Jan-10 15:00N 28°08' W 013°39'  
Track history (hours):
 
Tides and Currents Weather Stations Pressure Air Temp Water Temp Dewpoint Dewpoint Depression Visibility Wind Speed Wind Dir Waves Ship Positions

Hansa Australia

Last reported at 2018-Jan-19 11:21 UTC. Time now 2018-Jan-19 11:34 UTC.
Position N 51°20' E 004°20'.

Length 240 m; draft 8.4 m.

Type: Ship (hazmat cat A). MMSI: 255805757.

Date/timePositionNaut miles runAvg speedWind from/ knotsBaromVisibWave heightAir tempDewpointWater temp
2018-Jan-19 11:21N 51°20' E 004°20'0 0.0
2018-Jan-19 10:57N 51°20' E 004°20'0 0.0
2018-Jan-19 10:27N 51°20' E 004°20'0 0.0
2018-Jan-19 09:57N 51°20' E 004°20'0 0.0
2018-Jan-19 09:27N 51°20' E 004°20'0 0.0
2018-Jan-19 08:57N 51°20' E 004°20'0 0.0
2018-Jan-19 08:27N 51°20' E 004°20'0 0.0
2018-Jan-19 07:57N 51°20' E 004°20'0 0.0
2018-Jan-19 07:27N 51°20' E 004°20'0 0.0
2018-Jan-19 06:57N 51°20' E 004°20'0 0.0
2018-Jan-19 06:27N 51°20' E 004°20'0 0.0
2018-Jan-19 05:57N 51°20' E 004°20'0 0.0
2018-Jan-19 05:27N 51°20' E 004°20'0 0.0
2018-Jan-19 04:57N 51°20' E 004°20'0 0.0
2018-Jan-19 04:27N 51°20' E 004°20'0 0.0
2018-Jan-19 03:57N 51°20' E 004°20'0 0.0
2018-Jan-19 03:27N 51°20' E 004°20'0 0.0
2018-Jan-19 02:57N 51°20' E 004°20'0 0.0
2018-Jan-19 02:27N 51°20' E 004°20'0 0.0
2018-Jan-19 01:51N 51°20' E 004°20'0 0.0
2018-Jan-19 01:27N 51°20' E 004°20'0 0.0
2018-Jan-19 00:57N 51°20' E 004°20'1 2.3
2018-Jan-19 00:30N 51°20' E 004°18'1 2.7
2018-Jan-19 00:00N 51°21' E 004°17'0 0.0
2018-Jan-18 23:30N 51°21' E 004°17'0 0.1
2018-Jan-18 23:00N 51°21' E 004°17'3 5.1
2018-Jan-18 22:30N 51°22' E 004°13'4 7.4
2018-Jan-18 22:00N 51°22' E 004°07'5 9.5
2018-Jan-18 21:30N 51°25' E 004°02'4 8.8
2018-Jan-18 21:00N 51°23' E 003°56'510.8
2018-Jan-18 20:30N 51°21' E 003°48'510.5
2018-Jan-18 20:00N 51°25' E 003°42'5 9.6
2018-Jan-18 19:30N 51°26' E 003°35'4 7.4
2018-Jan-18 18:57N 51°25' E 003°28'510.9
2018-Jan-18 18:30N 51°24' E 003°21'611.5
2018-Jan-18 18:00N 51°24' E 003°11'712.6
2018-Jan-18 17:29N 51°25' E 003°01'613.6
2018-Jan-18 17:00N 51°25' E 002°51'612.2
2018-Jan-18 16:30N 51°22' E 002°42'2 2.7
2018-Jan-18 15:54N 51°22' E 002°40'2 3.0
2018-Jan-18 15:23N 51°22' E 002°37'3 7.1
2018-Jan-18 14:57N 51°22' E 002°32'3 7.5
2018-Jan-18 14:30N 51°21' E 002°27'4 7.9
2018-Jan-18 14:00N 51°20' E 002°21'4 8.0
2018-Jan-18 13:30N 51°18' E 002°16'611.5
2018-Jan-18 13:00N 51°15' E 002°08'612.2
2018-Jan-18 12:30N 51°12' E 001°59'612.3
2018-Jan-18 12:00N 51°10' E 001°50'612.6
2018-Jan-18 11:30N 51°06' E 001°42'612.8
2018-Jan-18 11:00N 51°02' E 001°35'714.2
2018-Jan-18 10:30N 50°56' E 001°27'713.9
2018-Jan-18 10:00N 50°50' E 001°24'713.2
2018-Jan-18 09:30N 50°43' E 001°21'1313.1
2018-Jan-18 08:31N 50°34' E 001°07'013.2
2018-Jan-18 08:30N 50°34' E 001°06'712.9
2018-Jan-18 07:59N 50°30' E 000°58'814.8
2018-Jan-18 07:28N 50°28' E 000°46'714.7
2018-Jan-18 07:00N 50°26' E 000°36'714.5
2018-Jan-18 06:30N 50°24' E 000°25'714.3
2018-Jan-18 06:00N 50°22' E 000°15'713.8
2018-Jan-18 05:30N 50°20' E 000°04'713.5
2018-Jan-18 05:00N 50°19' W 000°06'713.3
2018-Jan-18 04:30N 50°17' W 000°16'  
2018-Jan-10 19:46N 28°59' W 012°59'512.7
2018-Jan-10 19:23N 28°55' W 013°03'812.8
2018-Jan-10 18:47N 28°48' W 013°07'512.8
2018-Jan-10 18:25N 28°45' W 013°11'612.7
2018-Jan-10 17:57N 28°40' W 013°15'712.8
2018-Jan-10 17:24N 28°34' W 013°19'2913.1
2018-Jan-10 15:10N 28°10' W 013°38'212.9
2018-Jan-10 15:00N 28°08' W 013°39'  

Dump ship's entire track history